Wing, Alabama
Current Conditions -  °F | °C
As of 2:58 PM on Thursday 18 Dec 2014 (Local Time) from K0J4 Reporting Station
Few Clouds Few Clouds  
Wind Chill: 65°   Ceiling: Unl
Heat Index: 65°   Visibility: 10mi
Dew Point: 31°   Wind: 0mph
Humidity: 28%   Direction: NA
Pressure: 30.12"   Gusts: NA
Location:  31.03°N, 86.61°W
Report Text: K0J4 182058Z AUTO 00000KT 10SM FEW100 18/M01 A3012 RMK AO2 SLP199 T01831006 56018 $
Loading
Personal Weather Stations






























Interactive Weather Map New forecast layout! Learn more

10-Day Weather Forecast

Advertisements
Track Severe Weather on mobile